Terminal Aerodrome Forecast
Issued by NWS

Home | Current Version | Previous Version | Text Only | Print | Product List | Glossary On
Versions: 1 2 3 4 5 6 7 8 9 10 11 12 13
000
FTUS43 KILX 242333
TAFBMI
TAF
KBMI 242333Z 2500/2524 19018KT P6SM SCT250 WS015/23050KT
     FM250300 23017KT P6SM SCT100 BKN250
     FM250600 30015KT P6SM SCT150
     FM251500 31012G18KT P6SM SCT035=

USA.gov is the U.S. government's official web portal to all federal, state and local government web resources and services.